Airfield :
LOGIN :

Register | Disclaimer

   EN    FR    IT 

 










Legend :    VFR   Marginal VFR   IFR   Intensive IFR   Very Intensive IFR
Visi :
Ceiling :
>= 8 km
>= 3000ft
5 to 8 km
1000 to 3000 ft
1500m to 5 km
500 to 1000 ft
800 to 1500m
200 to 500 ft
< 800m
< 200 ft
Symbols :   Thunderstorms  Fog  Heavy snow  Heavy precipitations  Wind > 20 kt
SIGMETs :     Misc.  Thunderstorms  Icing  Turbulence  Mountain Waves  Volcanic Ashes






- Airport Elevation : 112 ft
- IATA code : SVQ


LEZL - Sevilla San Pablo

CURRENT METAR :
  • 180600Z 05003KT CAVOK 10/08 Q1019 NOSIG

EXPIRED METARs :
  • 180530Z 00000KT CAVOK 10/09 Q1019 NOSIG
  • 180500Z 05003KT 6000 FEW001 11/11 Q1018 NOSIG
  • 180430Z VRB02KT 0200 R27/0400U R09/0225N -DZ FG VV001 13/12 Q1018 NOSIG
  • 180400Z 09002KT 0200 R27/0350N R09/0400D FG VV001 12/12 Q1018 NOSIG
  • 180344Z 00000KT 0600 R27/0550N R09/1700D FG VV001 12/12 Q1018 NOSIG

TAF TAF LEZL
Valid from the 18 at 03:00 until the 19 at 03:00 UTC


180200Z 1803/1903 05006KT 9999 FEW040 TX25/1815Z TN10/1806Z
PROB40
TEMPO 1803/1806 3000 BR BKN005
PROB30
TEMPO 1803/1806 0600 FG VV001



MET'MAP, your aeronautical weather chart ! - Copyright ORBIFLY December 2007 - Disclaimer

ORBIFLY MET'MAP TEAM :

Programming & Development : Alexandra Zaïnal
Concept & original design : Baudouin d'Aumeries
Assistance for programming : Marc-Olivier Méhu
Technical & hardware support : Manuel Goepfert

Contact : metmap@orbifly.com




SOURCES & CREDITS :

   NOAA